AirNav   Pilot Hours Calculator
 
 1186 users online  

75IA Adair County Memorial Hospital Heliport
Greenfield, Iowa, USA

GOING TO GREENFIELD?


FAA INFORMATION EFFECTIVE 02 JANUARY 2020

Location

FAA Identifier: 75IA
Lat/Long: 41-18-14.3000N 094-27-03.6000W
41-18.238333N 094-27.060000W
41.3039722,-94.4510000
(estimated)
Elevation: 1310 ft. / 399 m (estimated)
Time zone: UTC -6 (UTC -5 during Daylight Saving Time)
Zip code: 50849

Heliport Operations

Heliport use: Private use, MEDICAL USE.
Activation date: 07/2004
Control tower: no
ARTCC: MINNEAPOLIS CENTER
FSS: FORT DODGE FLIGHT SERVICE STATION
Attendance: UNATNDD
Segmented circle: no

Heliport Communications

WX AWOS-3 at CSQ (17 nm S): 124.75 (641-782-6286)

Nearby radio navigation aids

VOR radial/distance  VOR name  Freq  Var
DSMr250/37.0DES MOINES VORTAC117.5007E

Heliport Services

Runway Information

Helipad H1

Dimensions: 40 x 40 ft. / 12 x 12 m
Surface: concrete
Latitude: 41-18.238333N
Longitude: 094-27.060000W
Elevation: 1310.0 ft.
Traffic pattern: leftleft

Heliport Ownership and Management from official FAA records

Ownership: Privately-owned
Owner: ADAIR COUNTY MEMORIAL HOSPITAL
609 SE KENT, ATTN: MARCIA HENDRICKS
GREENFIELD, IA 50849
Manager: ADAIR COUNTY MEMORIAL HOSPITAL
609 SE KENT, ATTN: MARCIA HENDRICKS
GREENFIELD, IA 50849

Additional Remarks

A52-H1 210 FT RADIO TWR 825 FT SE; 28 FT BLDG 35 FT SE; 22 FT BLDG 110 FT SE; & 310 FT TWR 280 FT WEST OF HELIPAD.
OWNERS DESIRE HELIPORT NOT BE CHARTED.
FOR CD CTC MINNEAPOLIS ARTCC AT 651-463-5588.

Instrument Procedures

There are no published instrument procedures at 75IA.

Some nearby airports with instrument procedures:

KGFZ - Greenfield Municipal Airport (1 nm N)
KCSQ - Creston Municipal Airport (17 nm S)
3Y3 - Winterset Municipal Airport (20 nm E)
KGCT - Guthrie County Regional Airport (23 nm N)
KCRZ - Corning Municipal Airport (23 nm SW)
 
Loc | Ops | Rwys | IFR | FBO | Links
Com | Nav | Svcs | Stats | Notes
Area around 75IA (Adair County Memorial Hospital Heliport)
 
Road maps at: MapQuest Bing Google
 
Aerial photo
No photo
 
Sectional chart

 
Airport distance calculator
Flying to Adair County Memorial Hospital Heliport? Find the distance to fly.

From to 75IA

Sunrise and sunset
Times for 26-Jan-2020
 Local
(UTC-6)
 Zulu
(UTC)
Morning civil twilight07:0613:06
Sunrise07:3613:36
Sunset17:2523:25
Evening civil twilight17:5523:55

Current date and time
Zulu (UTC)  27-Jan-2020 00:02:05
Local (UTC-6)  26-Jan-2020 18:02:05
 
METAR
KCSQ 
18nm S 
262355Z AUTO 24007KT M1/4SM FZFG OVC002 M01/M01 A2993 RMK AO2
KAIO 
28nm W 
262355Z AUTO 23005KT M1/4SM FZFG OVC002 M01/M01 A2993 RMK AO2
KADU 
32nm NW 
262355Z AUTO 24005KT 1/4SM FZFG OVC002 M01/M02 A2993 RMK AO2
KPRO 
34nm N 
262355Z AUTO 24006KT 4SM BR OVC004 00/00 A2992 RMK AO2 T00011005 10005 21008
TAF
KDSM 
38nm E 
262159Z 2622/2718 23008KT P6SM OVC007 FM270300 28004KT 2SM BR BKN003 FM270700 31004KT 1/2SM FG OVC003 FM271300 VRB03KT 2SM BR OVC006 FM271600 VRB04KT 5SM BR OVC011
NOTAMs
Click for the latest NOTAMs
NOTAMs are issued by the DoD/FAA and will open in a separate window not controlled by AirNav.

 

 
 

Would you like to see your business listed on this page?

 If your business provides an interesting product or service to pilots, flight crews, aircraft, or users of the Adair County Memorial Hospital Heliport, you should consider listing it here.  To start the listing process, click on the button below
 
Add a business
 

Other Pages about Adair County Memorial Hospital Heliport

Update a link
 
Copyright © AirNav, LLC. All rights reserved. Privacy Policy  Contact